レイキャビク/ケフラヴィーク の空港の天気 - METARとTAF

ケフラヴィーク国際空港 ( BIKF / KEF ) - アイスランド ケプラヴィーク
飛行場実況気象(Metar)
観測時間09/25 00:01 GMT (09/25 00:01 UTC)
風向・風速東 4m/s
視程10km以上
天気現象弱いしゅう雨
全天の4割程度の雲 雲底高度 550m
全天の8割程度の雲 雲底高度 1220m
全天の8割程度の雲 雲底高度 1830m
気温4℃
湿度93%
気圧997hPa
METARBIKF 250001Z 08007KT 9999 -SHRA SCT018CB BKN040 BKN060 04/03 Q0997
過去の天気等 Google飛行場航空写真 Wunderground天気予報

過去48時間のMETAR

飛行場予報(TAF)
発表時間: 9/24 22:40 GMT (9/24 22:40 UTC)
予報対象時間: 25日0時 GMT ~ 26日0時 GMT
風向・風速東南東 4m/s
視程10km以上
全天の4割程度の雲 雲底高度 610m
全天の8割程度の雲 雲底高度 1070m
25日0時 GMT ~ 25日9時 GMT に 確率 40% で一時的に
視程5000m
天気現象しゅう雨
全天の8割程度の雲 雲底高度 340m
25日12時 GMT ~ 25日21時 GMT に 確率 30% で一時的に
視程5000m
天気現象雨霧雨
全天の8割程度の雲 雲底高度 370m
25日21時 GMT ~ 25日23時 GMT に徐々に
風向・風速北東 10m/s 瞬間風速 15m/s
TAF BIKF 242240Z 2500/2600 12008KT 9999 SCT020 BKN035 TX06/2518Z TN03/2507Z
PROB40 TEMPO 2500/2509 5000 SHRA BKN011
PROB30 TEMPO 2512/2521 5000 RADZ BKN012
BECMG 2521/2523 04020G30KT